createdAt,value
2019-01-17T00:00:37.980Z,25.23
2019-01-17T00:01:53.227Z,20.30
2019-01-17T00:03:15.586Z,24.82
2019-01-17T00:04:36.374Z,12.68
2019-01-17T00:05:53.786Z,15.88
2019-01-17T00:07:20.862Z,13.35
2019-01-17T00:08:35.068Z,14.60
2019-01-17T00:10:04.815Z,24.85
2019-01-17T00:11:18.795Z,22.20
2019-01-17T00:12:34.126Z,13.68
2019-01-17T00:13:49.274Z,20.70
2019-01-17T00:15:11.681Z,13.53
2019-01-17T00:16:27.790Z,12.40
2019-01-17T00:17:58.779Z,12.13
2019-01-17T00:19:28.534Z,11.70
2019-01-17T00:21:01.140Z,18.37
2019-01-17T00:22:24.182Z,22.05
2019-01-17T00:24:02.670Z,16.90
2019-01-17T00:25:27.064Z,18.95
2019-01-17T00:26:56.670Z,21.80
2019-01-17T00:28:18.981Z,17.50
2019-01-17T00:29:41.463Z,19.25
2019-01-17T00:31:03.794Z,19.30
2019-01-17T00:32:23.943Z,14.03
2019-01-17T00:33:45.868Z,15.80
2019-01-17T00:35:08.047Z,12.15
2019-01-17T00:36:38.845Z,16.37
2019-01-17T00:38:01.102Z,13.53
2019-01-17T00:39:36.168Z,35.60
2019-01-17T00:41:05.722Z,16.23
2019-01-17T00:42:23.396Z,43.05
2019-01-17T00:43:46.912Z,18.20
2019-01-17T00:45:16.451Z,13.83
2019-01-17T00:46:46.059Z,16.80
2019-01-17T00:48:05.670Z,20.90
2019-01-17T00:49:32.825Z,12.68
2019-01-17T00:50:55.229Z,22.15
2019-01-17T00:52:15.682Z,12.63
2019-01-17T00:53:38.150Z,14.28
2019-01-17T00:55:16.731Z,15.63
2019-01-17T00:56:38.981Z,18.35
2019-01-17T00:58:01.256Z,15.18
2019-01-17T00:59:23.750Z,12.60
2019-01-17T01:00:48.939Z,31.65
2019-01-17T01:02:12.632Z,46.18
2019-01-17T01:03:36.734Z,16.00
2019-01-17T01:05:03.087Z,13.78
2019-01-17T01:06:24.753Z,17.42
2019-01-17T01:07:51.516Z,15.53
2019-01-17T01:09:13.840Z,14.13
2019-01-17T01:10:36.306Z,18.87
2019-01-17T01:11:58.496Z,12.93
2019-01-17T01:13:15.895Z,18.15
2019-01-17T01:14:45.642Z,15.30
2019-01-17T01:16:36.284Z,14.65
2019-01-17T01:18:15.008Z,12.75
2019-01-17T01:19:34.726Z,12.43
2019-01-17T01:20:48.494Z,10.58
2019-01-17T01:22:24.134Z,20.43
2019-01-17T01:23:39.750Z,14.35
2019-01-17T01:25:02.577Z,18.95
2019-01-17T01:26:24.727Z,22.20
2019-01-17T01:27:40.079Z,9.63
2019-01-17T01:29:02.323Z,13.65
2019-01-17T01:30:34.780Z,11.75
2019-01-17T01:31:52.590Z,17.00
2019-01-17T01:33:14.655Z,16.32
2019-01-17T01:34:38.350Z,18.42
2019-01-17T01:36:02.946Z,16.12
2019-01-17T01:37:25.148Z,18.37
2019-01-17T01:38:43.503Z,16.50
2019-01-17T01:40:05.866Z,15.05
2019-01-17T01:41:20.222Z,17.12
2019-01-17T01:42:52.793Z,15.32
2019-01-17T01:44:23.390Z,14.33
2019-01-17T01:45:47.184Z,18.45
2019-01-17T01:47:13.969Z,21.75
2019-01-17T01:48:34.359Z,15.05
2019-01-17T01:49:48.875Z,13.90
2019-01-17T01:51:20.422Z,11.35
2019-01-17T01:52:42.570Z,17.25
2019-01-17T01:53:47.130Z,15.28
2019-01-17T01:54:51.758Z,15.35
2019-01-17T01:55:56.398Z,17.00
2019-01-17T01:57:01.081Z,19.77
2019-01-17T01:58:05.815Z,16.37
2019-01-17T01:59:10.482Z,14.70
2019-01-17T02:00:15.124Z,14.87
2019-01-17T02:01:19.710Z,14.85
2019-01-17T02:02:24.258Z,16.37
2019-01-17T02:03:28.867Z,14.65
2019-01-17T02:04:33.422Z,13.45
2019-01-17T02:05:37.994Z,13.25
2019-01-17T02:06:42.581Z,14.07
2019-01-17T02:07:47.166Z,14.80
2019-01-17T02:08:51.736Z,12.20
2019-01-17T02:09:57.269Z,13.70
2019-01-17T02:11:01.859Z,16.20
2019-01-17T02:12:06.436Z,15.00
2019-01-17T02:13:11.146Z,17.12
2019-01-17T02:14:17.896Z,12.68
2019-01-17T02:15:22.548Z,12.98
2019-01-17T02:16:27.108Z,11.80
2019-01-17T02:17:31.779Z,12.55
2019-01-17T02:18:36.433Z,13.88
2019-01-17T02:19:41.047Z,15.40
2019-01-17T02:20:45.642Z,15.08
2019-01-17T02:21:50.360Z,13.60
2019-01-17T02:22:54.983Z,16.25
2019-01-17T02:23:59.602Z,12.98
2019-01-17T02:25:04.558Z,13.50
2019-01-17T02:26:09.149Z,14.13
2019-01-17T02:27:13.718Z,19.70
2019-01-17T02:28:18.311Z,12.70
2019-01-17T02:29:24.138Z,12.70
2019-01-17T02:30:28.696Z,14.25
2019-01-17T02:31:33.258Z,17.20
2019-01-17T02:32:38.002Z,10.18
2019-01-17T02:33:42.638Z,13.90
2019-01-17T02:34:48.262Z,11.73
2019-01-17T02:35:52.872Z,19.82
2019-01-17T02:36:57.894Z,14.47
2019-01-17T02:38:02.462Z,13.98
2019-01-17T02:39:08.665Z,11.93
2019-01-17T02:40:13.765Z,11.05
2019-01-17T02:41:18.373Z,15.48
2019-01-17T02:42:23.057Z,12.20
2019-01-17T02:43:27.732Z,11.35
2019-01-17T02:44:32.315Z,16.55
2019-01-17T02:45:36.960Z,10.18
2019-01-17T02:46:41.692Z,18.60
2019-01-17T02:47:46.290Z,11.20
2019-01-17T02:48:50.850Z,12.30
2019-01-17T02:49:55.491Z,12.45
2019-01-17T02:51:00.124Z,12.25
2019-01-17T02:52:04.774Z,12.80
2019-01-17T02:53:09.446Z,17.48
2019-01-17T02:54:14.021Z,11.50
2019-01-17T02:55:18.644Z,13.70
2019-01-17T02:56:23.222Z,13.78
2019-01-17T02:57:30.152Z,12.03
2019-01-17T02:58:34.778Z,14.07
2019-01-17T02:59:39.364Z,15.40
2019-01-17T03:00:43.936Z,10.03
2019-01-17T03:01:48.539Z,11.33
2019-01-17T03:02:53.335Z,12.58
2019-01-17T03:03:57.951Z,13.58
2019-01-17T03:05:02.629Z,12.03
2019-01-17T03:06:07.346Z,15.05
2019-01-17T03:07:11.914Z,16.32
2019-01-17T03:08:16.562Z,11.75
2019-01-17T03:09:21.166Z,13.38
2019-01-17T03:10:25.763Z,13.62
2019-01-17T03:11:30.356Z,15.20
2019-01-17T03:12:35.226Z,12.50
2019-01-17T03:13:40.439Z,13.22
2019-01-17T03:14:45.050Z,13.32
2019-01-17T03:15:49.883Z,12.10
2019-01-17T03:16:54.505Z,12.35
2019-01-17T03:18:00.477Z,14.93
2019-01-17T03:19:05.065Z,16.65
2019-01-17T03:20:10.800Z,12.15
2019-01-17T03:21:16.444Z,15.43
2019-01-17T03:22:21.045Z,16.02
2019-01-17T03:23:25.729Z,14.00
2019-01-17T03:24:30.372Z,11.57
2019-01-17T03:25:34.970Z,13.70
2019-01-17T03:26:39.566Z,11.05
2019-01-17T03:27:46.604Z,16.48
2019-01-17T03:28:51.257Z,12.80
2019-01-17T03:29:55.817Z,16.30
2019-01-17T03:31:00.576Z,11.18
2019-01-17T03:32:05.337Z,12.80
2019-01-17T03:33:10.051Z,10.43
2019-01-17T03:34:15.415Z,11.93
2019-01-17T03:35:20.029Z,15.28
2019-01-17T03:36:25.577Z,13.38
2019-01-17T03:37:30.137Z,13.28
2019-01-17T03:38:34.751Z,14.18
2019-01-17T03:39:39.314Z,11.88
2019-01-17T03:40:44.127Z,9.03
2019-01-17T03:41:48.912Z,11.35
2019-01-17T03:42:53.683Z,10.70
2019-01-17T03:43:58.346Z,12.15
2019-01-17T03:45:03.024Z,10.50
2019-01-17T03:46:07.845Z,17.52
2019-01-17T03:47:12.646Z,10.72
2019-01-17T03:48:17.284Z,15.53
2019-01-17T03:49:22.083Z,16.77
2019-01-17T03:50:26.666Z,12.78
2019-01-17T03:51:32.505Z,14.78
2019-01-17T03:52:37.717Z,12.93
2019-01-17T03:53:42.511Z,15.30
2019-01-17T03:54:51.954Z,11.68
2019-01-17T03:55:53.573Z,12.10
2019-01-17T03:56:58.123Z,16.45
2019-01-17T03:58:03.013Z,11.80
2019-01-17T03:59:07.707Z,16.30
2019-01-17T04:00:15.357Z,11.35
2019-01-17T04:01:19.961Z,12.93
2019-01-17T04:02:24.617Z,12.50
2019-01-17T04:03:29.224Z,12.05
2019-01-17T04:04:33.827Z,9.58
2019-01-17T04:05:38.408Z,14.25
2019-01-17T04:06:42.997Z,14.23
2019-01-17T04:07:47.625Z,12.50
2019-01-17T04:08:52.312Z,13.22
2019-01-17T04:09:58.170Z,12.75
2019-01-17T04:11:02.819Z,10.20
2019-01-17T04:12:07.482Z,15.32
2019-01-17T04:13:12.054Z,11.40
2019-01-17T04:14:16.812Z,13.72
2019-01-17T04:15:21.991Z,14.53
2019-01-17T04:16:26.662Z,13.85
2019-01-17T04:17:31.279Z,14.70
2019-01-17T04:18:36.860Z,11.00
2019-01-17T04:19:41.829Z,10.05
2019-01-17T04:20:46.369Z,18.27
2019-01-17T04:21:50.965Z,15.23
2019-01-17T04:22:55.618Z,9.80
2019-01-17T04:24:00.214Z,12.80
2019-01-17T04:25:05.779Z,12.15
2019-01-17T04:26:11.177Z,11.65
2019-01-17T04:27:15.743Z,12.03
2019-01-17T04:28:20.430Z,11.55
2019-01-17T04:29:25.034Z,12.47
2019-01-17T04:30:29.871Z,11.68
2019-01-17T04:31:34.562Z,11.95
2019-01-17T04:32:39.190Z,14.00
2019-01-17T04:33:43.816Z,10.30
2019-01-17T04:34:48.440Z,13.05
2019-01-17T04:35:53.046Z,11.18
2019-01-17T04:36:57.636Z,10.10
2019-01-17T04:38:02.279Z,14.35
2019-01-17T04:39:07.793Z,10.90
2019-01-17T04:40:12.757Z,10.93
2019-01-17T04:41:17.394Z,12.13
2019-01-17T04:42:22.006Z,16.45
2019-01-17T04:43:26.573Z,10.60
2019-01-17T04:44:31.192Z,12.80
2019-01-17T04:45:35.747Z,12.07
2019-01-17T04:46:41.566Z,16.80
2019-01-17T04:47:46.120Z,15.20
2019-01-17T04:48:50.730Z,11.20
2019-01-17T04:49:55.336Z,13.25
2019-01-17T04:50:59.887Z,10.55
2019-01-17T04:52:04.472Z,10.40
2019-01-17T04:53:09.043Z,10.70
2019-01-17T04:54:13.707Z,13.10
2019-01-17T04:55:18.368Z,13.10
2019-01-17T04:56:23.056Z,12.85
2019-01-17T04:57:27.651Z,14.78
2019-01-17T04:58:32.594Z,13.25
2019-01-17T04:59:37.148Z,11.00
2019-01-17T05:00:41.797Z,14.50
2019-01-17T05:01:46.414Z,13.95
2019-01-17T05:02:50.978Z,12.78
2019-01-17T05:03:55.672Z,15.05
2019-01-17T05:05:00.349Z,10.95
2019-01-17T05:06:05.059Z,10.75
2019-01-17T05:07:09.740Z,12.43
2019-01-17T05:08:14.265Z,11.15
2019-01-17T05:09:18.933Z,9.90
2019-01-17T05:10:24.507Z,13.62
2019-01-17T05:11:29.109Z,10.35
2019-01-17T05:12:33.696Z,13.03
2019-01-17T05:13:38.252Z,9.98
2019-01-17T05:14:42.842Z,13.05
2019-01-17T05:15:47.444Z,14.15
2019-01-17T05:16:52.118Z,13.10
2019-01-17T05:17:56.733Z,15.68
2019-01-17T05:19:01.319Z,13.25
2019-01-17T05:20:07.470Z,12.28
2019-01-17T05:21:12.063Z,11.22
2019-01-17T05:22:16.674Z,11.35
2019-01-17T05:23:21.318Z,13.35
2019-01-17T05:24:25.904Z,11.75
2019-01-17T05:25:30.596Z,11.75
2019-01-17T05:26:35.147Z,11.48
2019-01-17T05:27:39.749Z,11.78
2019-01-17T05:28:44.296Z,10.48
2019-01-17T05:29:48.879Z,12.43
2019-01-17T05:30:53.518Z,13.32
2019-01-17T05:31:58.114Z,10.15
2019-01-17T05:33:03.054Z,18.40
2019-01-17T05:34:07.710Z,10.35
2019-01-17T05:35:12.258Z,15.55
2019-01-17T05:36:16.881Z,10.28
2019-01-17T05:37:21.465Z,12.55
2019-01-17T05:38:27.043Z,11.45
2019-01-17T05:39:31.635Z,10.90
2019-01-17T05:40:36.224Z,13.43
2019-01-17T05:41:40.821Z,13.48
2019-01-17T05:42:45.466Z,10.72
2019-01-17T05:43:50.205Z,12.20
2019-01-17T05:44:54.778Z,16.57
2019-01-17T05:45:59.409Z,15.53
2019-01-17T05:47:04.090Z,14.25
2019-01-17T05:48:08.788Z,12.18
2019-01-17T05:49:13.308Z,13.10
2019-01-17T05:50:18.196Z,8.35
2019-01-17T05:51:22.790Z,12.95
2019-01-17T05:52:27.399Z,11.28
2019-01-17T05:53:32.033Z,12.93
2019-01-17T05:54:36.653Z,10.78
2019-01-17T05:55:41.286Z,8.90
2019-01-17T05:56:45.861Z,12.10
2019-01-17T05:57:50.434Z,11.22
2019-01-17T05:58:55.080Z,9.30
2019-01-17T05:59:59.644Z,12.20
2019-01-17T06:01:04.475Z,13.60
2019-01-17T06:02:09.090Z,11.43
2019-01-17T06:03:13.700Z,9.13
2019-01-17T06:04:18.351Z,9.15
2019-01-17T06:05:23.022Z,10.18
2019-01-17T06:06:33.012Z,9.00
2019-01-17T06:07:34.024Z,13.40
2019-01-17T06:08:38.586Z,8.45
2019-01-17T06:09:43.180Z,10.75
2019-01-17T06:10:47.745Z,10.75
2019-01-17T06:11:52.344Z,8.55
2019-01-17T06:12:57.068Z,8.63
2019-01-17T06:14:01.742Z,8.85
2019-01-17T06:15:06.663Z,10.45
2019-01-17T06:16:11.270Z,9.80
2019-01-17T06:17:15.826Z,13.40
2019-01-17T06:18:20.442Z,10.00
2019-01-17T06:19:25.039Z,8.08
2019-01-17T06:20:29.640Z,9.33
2019-01-17T06:21:34.216Z,13.45
2019-01-17T06:22:38.856Z,10.00
2019-01-17T06:23:43.435Z,9.23
2019-01-17T06:24:48.011Z,7.92
2019-01-17T06:25:52.650Z,10.72
2019-01-17T06:26:57.269Z,9.83
2019-01-17T06:28:01.992Z,8.05
2019-01-17T06:29:06.499Z,10.30
2019-01-17T06:30:12.403Z,9.75
2019-01-17T06:31:16.994Z,7.60
2019-01-17T06:32:21.563Z,8.50
2019-01-17T06:33:26.229Z,10.43
2019-01-17T06:34:30.768Z,9.45
2019-01-17T06:35:35.421Z,7.45
2019-01-17T06:36:39.989Z,13.28
2019-01-17T06:37:45.059Z,8.25
2019-01-17T06:38:49.635Z,8.68
2019-01-17T06:39:54.194Z,7.35
2019-01-17T06:40:58.807Z,8.38
2019-01-17T06:42:03.560Z,9.60
2019-01-17T06:43:08.143Z,8.90
2019-01-17T06:44:12.729Z,10.13
2019-01-17T06:45:17.533Z,10.60
2019-01-17T06:46:22.124Z,9.13
2019-01-17T06:47:26.767Z,7.75
2019-01-17T06:48:31.419Z,7.15
2019-01-17T06:49:35.955Z,8.70
2019-01-17T06:50:40.527Z,7.35
2019-01-17T06:51:45.968Z,5.75
2019-01-17T06:52:50.553Z,8.35
2019-01-17T06:53:55.149Z,8.53
2019-01-17T06:54:59.745Z,10.85
2019-01-17T06:56:04.422Z,8.18
2019-01-17T06:57:08.974Z,7.33
2019-01-17T06:58:13.531Z,8.75
2019-01-17T06:59:18.113Z,8.85
2019-01-17T07:00:22.754Z,8.33
2019-01-17T07:01:27.378Z,9.18
2019-01-17T07:02:31.945Z,10.18
2019-01-17T07:03:36.534Z,6.97
2019-01-17T07:04:41.183Z,7.00
2019-01-17T07:05:45.757Z,9.70
2019-01-17T07:06:50.405Z,7.65
2019-01-17T07:07:54.946Z,10.15
2019-01-17T07:08:59.547Z,7.10
2019-01-17T07:10:05.393Z,6.55
2019-01-17T07:11:10.006Z,7.33
2019-01-17T07:12:14.586Z,6.75
2019-01-17T07:13:19.154Z,7.87
2019-01-17T07:14:23.711Z,7.42
2019-01-17T07:15:28.296Z,6.05
2019-01-17T07:16:32.834Z,6.20
2019-01-17T07:17:37.449Z,5.80
2019-01-17T07:18:42.036Z,7.08
2019-01-17T07:19:46.587Z,7.50
2019-01-17T07:20:51.462Z,7.55
2019-01-17T07:21:56.004Z,8.88
2019-01-17T07:23:00.613Z,6.42
2019-01-17T07:24:05.575Z,7.70
2019-01-17T07:25:10.257Z,7.78
2019-01-17T07:26:14.837Z,5.58
2019-01-17T07:27:19.382Z,6.40
2019-01-17T07:28:23.963Z,6.40
2019-01-17T07:29:28.571Z,6.50
2019-01-17T07:30:33.138Z,9.13
2019-01-17T07:31:37.779Z,8.05
2019-01-17T07:32:42.428Z,4.12
2019-01-17T07:33:46.988Z,5.80
2019-01-17T07:34:51.600Z,6.78
2019-01-17T07:35:56.133Z,6.20
2019-01-17T07:37:00.694Z,4.85
2019-01-17T07:38:05.282Z,6.35
2019-01-17T07:39:09.867Z,10.32
2019-01-17T07:40:15.378Z,7.35
2019-01-17T07:41:19.943Z,7.72
2019-01-17T07:42:24.539Z,12.63
2019-01-17T07:43:29.106Z,7.58
2019-01-17T07:44:33.684Z,5.17
2019-01-17T07:45:38.276Z,4.97
2019-01-17T07:46:42.814Z,5.75
2019-01-17T07:47:47.400Z,7.53
2019-01-17T07:48:51.947Z,8.78
2019-01-17T07:49:56.515Z,7.12
2019-01-17T07:51:01.097Z,5.50
2019-01-17T07:52:06.752Z,5.17
2019-01-17T07:53:11.420Z,5.55
2019-01-17T07:54:15.975Z,6.35
2019-01-17T07:55:20.534Z,8.03
2019-01-17T07:56:25.091Z,7.12
2019-01-17T07:57:29.778Z,6.50
2019-01-17T07:58:34.424Z,5.55
2019-01-17T07:59:39.020Z,9.15
2019-01-17T08:00:43.603Z,7.25
2019-01-17T08:01:48.287Z,6.92
2019-01-17T08:02:52.930Z,6.30
2019-01-17T08:03:57.523Z,5.35
2019-01-17T08:05:02.093Z,4.33
2019-01-17T08:06:06.907Z,5.80
2019-01-17T08:07:11.530Z,5.37
2019-01-17T08:08:16.176Z,6.00
2019-01-17T08:09:21.082Z,7.33
2019-01-17T08:10:25.677Z,8.35
2019-01-17T08:11:30.289Z,6.47
2019-01-17T08:12:34.923Z,4.87
2019-01-17T08:13:39.546Z,4.55
2019-01-17T08:14:44.186Z,4.53
2019-01-17T08:15:49.752Z,6.35
2019-01-17T08:16:54.364Z,4.25
2019-01-17T08:17:58.927Z,6.62
2019-01-17T08:19:03.588Z,4.28
2019-01-17T08:20:11.571Z,5.80
2019-01-17T08:21:16.214Z,4.22
2019-01-17T08:22:20.849Z,5.83
2019-01-17T08:23:25.424Z,6.65
2019-01-17T08:24:29.999Z,6.90
2019-01-17T08:25:35.556Z,5.47
2019-01-17T08:26:40.188Z,4.60
2019-01-17T08:27:44.826Z,4.12
2019-01-17T08:28:49.443Z,4.28
2019-01-17T08:29:54.067Z,5.75
2019-01-17T08:30:58.672Z,4.47
2019-01-17T08:32:03.263Z,4.00
2019-01-17T08:33:07.811Z,4.28
2019-01-17T08:34:12.385Z,4.37
2019-01-17T08:35:17.538Z,5.08
2019-01-17T08:36:22.126Z,3.90
2019-01-17T08:37:26.761Z,4.42
2019-01-17T08:38:31.425Z,5.28
2019-01-17T08:39:36.086Z,6.03
2019-01-17T08:40:40.667Z,5.42
2019-01-17T08:41:45.268Z,12.55
2019-01-17T08:42:49.925Z,5.70
2019-01-17T08:43:54.494Z,5.75
2019-01-17T08:44:59.067Z,7.45
2019-01-17T08:46:03.816Z,4.35
2019-01-17T08:47:08.432Z,4.30
2019-01-17T08:48:13.052Z,6.85
2019-01-17T08:49:17.671Z,11.28
2019-01-17T08:50:22.403Z,5.00
2019-01-17T08:51:27.073Z,5.92
2019-01-17T08:52:32.632Z,5.40
2019-01-17T08:53:37.459Z,8.20
2019-01-17T08:54:42.074Z,9.48
2019-01-17T08:55:46.741Z,5.87
2019-01-17T08:56:51.295Z,10.65
2019-01-17T08:57:55.838Z,6.55
2019-01-17T08:59:00.423Z,5.35
2019-01-17T09:00:06.830Z,6.03
2019-01-17T09:01:11.437Z,14.45
2019-01-17T09:02:16.075Z,9.30
2019-01-17T09:03:20.687Z,7.75
2019-01-17T09:04:25.262Z,21.00
2019-01-17T09:05:29.925Z,29.05
2019-01-17T09:06:34.511Z,16.00
2019-01-17T09:07:39.068Z,6.90
2019-01-17T09:08:43.748Z,8.58
2019-01-17T09:09:48.355Z,6.45
2019-01-17T09:10:52.952Z,19.02
2019-01-17T09:11:57.627Z,69.85
2019-01-17T09:13:02.223Z,15.03
2019-01-17T09:14:06.791Z,10.20
2019-01-17T09:15:12.948Z,10.03
2019-01-17T09:16:17.627Z,8.83
2019-01-17T09:17:22.204Z,5.83
2019-01-17T09:18:26.909Z,20.50
2019-01-17T09:19:31.539Z,23.22
2019-01-17T09:20:36.617Z,11.48
2019-01-17T09:21:41.270Z,21.70
2019-01-17T09:22:45.906Z,28.80
2019-01-17T09:23:50.533Z,11.05
2019-01-17T09:24:55.171Z,6.83
2019-01-17T09:25:59.743Z,9.78
2019-01-17T09:27:04.400Z,10.30
2019-01-17T09:28:08.994Z,8.58
2019-01-17T09:29:13.579Z,5.62
2019-01-17T09:30:18.664Z,6.30
2019-01-17T09:31:23.311Z,7.87
2019-01-17T09:32:27.930Z,10.53
2019-01-17T09:33:32.537Z,28.60
2019-01-17T09:34:37.181Z,6.05
2019-01-17T09:35:41.826Z,18.00
2019-01-17T09:36:46.489Z,5.65
2019-01-17T09:37:51.061Z,10.35
2019-01-17T09:38:55.635Z,9.38
2019-01-17T09:40:00.304Z,7.50
2019-01-17T09:41:05.012Z,4.60
2019-01-17T09:42:09.559Z,4.83
2019-01-17T09:43:14.175Z,3.77
2019-01-17T09:44:18.716Z,4.20
2019-01-17T09:45:23.309Z,6.20
2019-01-17T09:46:27.912Z,3.33
2019-01-17T09:47:32.493Z,6.87
2019-01-17T09:48:37.128Z,7.83
2019-01-17T09:49:41.736Z,12.35
2019-01-17T09:50:46.372Z,10.58
2019-01-17T09:51:51.036Z,5.70
2019-01-17T09:52:55.760Z,6.37
2019-01-17T09:54:00.352Z,6.50
2019-01-17T09:55:05.327Z,10.05
2019-01-17T09:56:14.802Z,9.23
2019-01-17T09:57:16.329Z,4.90
2019-01-17T09:58:20.915Z,7.53
2019-01-17T09:59:25.484Z,4.03
2019-01-17T10:00:31.522Z,5.25
2019-01-17T10:01:36.070Z,7.15
2019-01-17T10:02:40.678Z,7.87
2019-01-17T10:03:45.269Z,6.78
2019-01-17T10:04:49.855Z,4.12
2019-01-17T10:05:54.425Z,3.50
2019-01-17T10:07:00.064Z,5.72
2019-01-17T10:08:04.802Z,9.45
2019-01-17T10:09:12.000Z,3.60
2019-01-17T10:10:17.564Z,4.60
2019-01-17T10:11:22.382Z,4.35
2019-01-17T10:12:27.459Z,6.30
2019-01-17T10:13:32.254Z,7.25
2019-01-17T10:14:37.337Z,4.22
2019-01-17T10:16:02.441Z,7.58
2019-01-17T10:17:31.188Z,3.72
2019-01-17T10:19:02.130Z,5.20
2019-01-17T10:20:29.428Z,5.78
2019-01-17T10:22:01.779Z,9.93
2019-01-17T10:23:22.796Z,4.45
2019-01-17T10:24:41.975Z,2.75
2019-01-17T10:26:08.255Z,11.30
2019-01-17T10:27:24.769Z,4.45
2019-01-17T10:29:14.434Z,6.08
2019-01-17T10:31:05.740Z,4.40
2019-01-17T10:32:52.269Z,9.95
2019-01-17T10:34:23.316Z,5.62
2019-01-17T10:36:12.418Z,2.58
2019-01-17T10:37:41.310Z,5.05
2019-01-17T10:39:21.487Z,8.95
2019-01-17T10:40:58.668Z,3.70
2019-01-17T10:42:32.661Z,10.55
2019-01-17T10:44:11.155Z,6.90
2019-01-17T10:45:39.489Z,3.30
2019-01-17T10:47:15.765Z,4.78
2019-01-17T10:48:43.128Z,10.13
2019-01-17T10:50:11.913Z,4.25
2019-01-17T10:51:31.004Z,6.83
2019-01-17T10:53:17.251Z,7.28
2019-01-17T10:55:12.822Z,10.23
2019-01-17T10:56:44.370Z,9.48
2019-01-17T10:58:11.983Z,3.00
2019-01-17T10:59:35.265Z,5.15
2019-01-17T11:01:10.490Z,9.30
2019-01-17T11:03:05.135Z,12.45
2019-01-17T11:04:42.422Z,6.25
2019-01-17T11:06:14.713Z,9.63
2019-01-17T11:07:31.241Z,4.17
2019-01-17T11:09:10.750Z,12.18
2019-01-17T11:11:01.490Z,7.53
2019-01-17T11:12:31.812Z,6.53
2019-01-17T11:14:06.342Z,5.35
2019-01-17T11:15:22.603Z,3.65
2019-01-17T11:17:13.740Z,7.58
2019-01-17T11:18:43.753Z,6.70
2019-01-17T11:20:13.400Z,3.87
2019-01-17T11:22:06.511Z,3.95
2019-01-17T11:23:51.845Z,4.83
2019-01-17T11:25:19.751Z,7.92
2019-01-17T11:26:52.669Z,5.15
2019-01-17T11:28:34.153Z,3.47
2019-01-17T11:29:54.462Z,2.27
2019-01-17T11:31:25.216Z,3.20
2019-01-17T11:33:11.891Z,2.85
2019-01-17T11:34:48.734Z,2.90
2019-01-17T11:36:11.611Z,4.95
2019-01-17T11:37:44.927Z,8.90
2019-01-17T11:39:17.259Z,4.12
2019-01-17T11:40:56.735Z,4.40
2019-01-17T11:42:13.840Z,2.85
2019-01-17T11:43:43.510Z,5.90
2019-01-17T11:45:06.896Z,6.75
2019-01-17T11:46:40.362Z,5.58
2019-01-17T11:48:04.594Z,6.50
2019-01-17T11:49:39.946Z,3.83
2019-01-17T11:51:08.333Z,6.78
2019-01-17T11:53:05.465Z,2.12
2019-01-17T11:54:50.314Z,2.75
2019-01-17T11:56:16.185Z,2.10
2019-01-17T11:57:59.952Z,2.27
2019-01-17T11:59:33.362Z,3.77
2019-01-17T12:01:05.301Z,6.85
2019-01-17T12:02:42.822Z,5.87
2019-01-17T12:04:23.053Z,5.05
2019-01-17T12:05:29.209Z,2.55
2019-01-17T12:06:36.717Z,5.03
2019-01-17T12:07:41.376Z,4.80
2019-01-17T12:08:46.139Z,6.40
2019-01-17T12:09:50.733Z,2.77
2019-01-17T12:10:55.393Z,5.45
2019-01-17T12:12:00.284Z,5.55
2019-01-17T12:13:05.186Z,2.60
2019-01-17T12:14:09.987Z,2.98
2019-01-17T12:15:14.649Z,2.55
2019-01-17T12:16:19.286Z,4.72
2019-01-17T12:17:23.996Z,4.00
2019-01-17T12:18:28.603Z,8.68
2019-01-17T12:19:33.264Z,2.60
2019-01-17T12:20:37.935Z,4.60
2019-01-17T12:21:44.167Z,2.65
2019-01-17T12:22:48.821Z,4.40
2019-01-17T12:23:53.455Z,8.23
2019-01-17T12:24:58.088Z,5.12
2019-01-17T12:26:02.730Z,3.27
2019-01-17T12:27:07.436Z,3.25
2019-01-17T12:28:12.080Z,2.55
2019-01-17T12:29:16.855Z,2.72
2019-01-17T12:30:21.675Z,2.45
2019-01-17T12:31:26.321Z,6.00
2019-01-17T12:32:30.915Z,2.52
2019-01-17T12:33:35.459Z,5.17
2019-01-17T12:34:40.246Z,7.58
2019-01-17T12:35:46.466Z,2.22
2019-01-17T12:36:51.207Z,8.75
2019-01-17T12:37:55.803Z,3.10
2019-01-17T12:39:00.498Z,2.65
2019-01-17T12:40:06.054Z,2.37
2019-01-17T12:41:10.693Z,5.00
2019-01-17T12:42:15.307Z,3.00
2019-01-17T12:43:19.941Z,2.95
2019-01-17T12:44:24.616Z,3.15
2019-01-17T12:45:29.244Z,2.42
2019-01-17T12:46:33.889Z,2.67
2019-01-17T12:47:38.497Z,2.95
2019-01-17T12:48:43.162Z,4.08
2019-01-17T12:49:47.944Z,4.67
2019-01-17T12:50:52.645Z,4.65
2019-01-17T12:51:57.210Z,3.47
2019-01-17T12:53:03.730Z,3.83
2019-01-17T12:54:09.076Z,2.77
2019-01-17T12:55:13.925Z,3.85
2019-01-17T12:56:18.531Z,5.25
2019-01-17T12:57:23.155Z,2.40
2019-01-17T12:58:27.760Z,2.42
2019-01-17T12:59:32.391Z,1.90
2019-01-17T13:00:37.168Z,4.15
2019-01-17T13:01:41.855Z,2.87
2019-01-17T13:02:46.582Z,3.30
2019-01-17T13:03:51.309Z,3.90
2019-01-17T13:04:55.977Z,1.80
2019-01-17T13:06:00.626Z,3.70
2019-01-17T13:07:05.270Z,1.98
2019-01-17T13:08:09.932Z,2.27
2019-01-17T13:09:14.568Z,2.47
2019-01-17T13:10:19.159Z,2.27
2019-01-17T13:11:23.779Z,4.03
2019-01-17T13:12:28.495Z,5.10
2019-01-17T13:13:33.173Z,5.70
2019-01-17T13:14:37.778Z,4.37
2019-01-17T13:15:42.342Z,1.80
2019-01-17T13:16:47.076Z,3.60
2019-01-17T13:17:51.649Z,3.10
2019-01-17T13:18:56.248Z,5.78
2019-01-17T13:20:00.823Z,3.30
2019-01-17T13:21:05.648Z,2.15
2019-01-17T13:22:10.591Z,3.12
2019-01-17T13:23:15.227Z,2.00
2019-01-17T13:24:20.189Z,9.10
2019-01-17T13:25:24.772Z,4.70
2019-01-17T13:26:29.653Z,3.62
2019-01-17T13:27:34.342Z,2.10
2019-01-17T13:28:38.905Z,1.80
2019-01-17T13:29:45.886Z,2.37
2019-01-17T13:30:50.503Z,3.72
2019-01-17T13:31:55.128Z,4.35
2019-01-17T13:32:59.661Z,4.83
2019-01-17T13:34:04.553Z,3.52
2019-01-17T13:35:09.576Z,1.52
2019-01-17T13:36:14.255Z,2.75
2019-01-17T13:37:18.957Z,3.67
2019-01-17T13:38:23.584Z,6.45
2019-01-17T13:39:28.191Z,2.90
2019-01-17T13:40:32.768Z,4.62
2019-01-17T13:41:37.426Z,4.62
2019-01-17T13:42:42.075Z,3.35
2019-01-17T13:43:46.662Z,2.30
2019-01-17T13:44:51.387Z,5.12
2019-01-17T13:45:55.980Z,4.25
2019-01-17T13:47:00.558Z,3.17
2019-01-17T13:48:05.425Z,12.58
2019-01-17T13:49:10.091Z,8.20
2019-01-17T13:50:15.050Z,2.52
2019-01-17T13:51:19.896Z,10.43
2019-01-17T13:52:24.526Z,4.25
2019-01-17T13:53:29.174Z,2.00
2019-01-17T13:54:33.888Z,2.50
2019-01-17T13:55:38.492Z,3.47
2019-01-17T13:56:43.175Z,4.75
2019-01-17T13:57:47.781Z,2.92
2019-01-17T13:58:52.377Z,23.45
2019-01-17T13:59:57.052Z,5.72
2019-01-17T14:01:01.767Z,4.90
2019-01-17T14:02:06.322Z,2.17
2019-01-17T14:03:10.935Z,15.38
2019-01-17T14:04:15.509Z,8.05
2019-01-17T14:05:20.298Z,6.25
2019-01-17T14:06:25.014Z,8.58
2019-01-17T14:07:29.590Z,3.65
2019-01-17T14:08:34.215Z,5.17
2019-01-17T14:09:38.806Z,3.02
2019-01-17T14:10:43.407Z,4.20
2019-01-17T14:11:48.131Z,5.30
2019-01-17T14:12:52.774Z,3.58
2019-01-17T14:13:57.347Z,4.12
2019-01-17T14:15:01.986Z,16.62
2019-01-17T14:16:07.524Z,3.90
2019-01-17T14:17:12.181Z,2.55
2019-01-17T14:18:16.829Z,5.60
2019-01-17T14:19:21.458Z,3.45
2019-01-17T14:20:26.110Z,2.83
2019-01-17T14:21:30.762Z,3.42
2019-01-17T14:22:35.406Z,5.10
2019-01-17T14:23:40.032Z,4.80
2019-01-17T14:24:44.638Z,3.35
2019-01-17T14:25:49.243Z,4.45
2019-01-17T14:26:53.898Z,5.87
2019-01-17T14:27:58.524Z,4.28
2019-01-17T14:29:03.186Z,5.05
2019-01-17T14:30:14.504Z,2.50
2019-01-17T14:31:19.114Z,2.60
2019-01-17T14:32:23.692Z,3.75
2019-01-17T14:33:28.322Z,11.57
2019-01-17T14:34:32.922Z,2.83
2019-01-17T14:35:37.763Z,4.12
2019-01-17T14:36:42.455Z,4.10
2019-01-17T14:37:47.108Z,7.25
2019-01-17T14:38:51.704Z,4.60
2019-01-17T14:39:56.305Z,3.83
2019-01-17T14:41:00.895Z,4.83
2019-01-17T14:42:05.466Z,2.42
2019-01-17T14:43:10.361Z,3.22
2019-01-17T14:44:15.004Z,2.47
2019-01-17T14:45:19.919Z,3.40
2019-01-17T14:46:24.543Z,3.52
2019-01-17T14:47:29.159Z,3.85
2019-01-17T14:48:33.864Z,2.65
2019-01-17T14:49:38.426Z,5.53
2019-01-17T14:50:43.110Z,2.42
2019-01-17T14:51:47.825Z,7.30
2019-01-17T14:52:52.441Z,2.58
2019-01-17T14:53:57.073Z,10.10
2019-01-17T14:55:02.958Z,6.65
2019-01-17T14:56:07.619Z,3.85
2019-01-17T14:57:12.484Z,2.80
2019-01-17T14:58:17.106Z,3.17
2019-01-17T14:59:21.853Z,2.20
2019-01-17T15:00:29.075Z,2.95
2019-01-17T15:01:33.687Z,6.30
2019-01-17T15:02:38.531Z,3.42
2019-01-17T15:03:43.205Z,2.80
2019-01-17T15:04:47.952Z,5.72
2019-01-17T15:05:52.725Z,2.50
2019-01-17T15:06:57.346Z,2.30
2019-01-17T15:08:02.321Z,3.52
2019-01-17T15:09:08.202Z,7.03